sensor_id;sensor_type;location;lat;lon;timestamp;pressure;altitude;pressure_sealevel;temperature;humidity
12178;BME280;6152;48.728;9.256;2023-02-14T00:02:16;98900.56;;;-1.19;100.00
12178;BME280;6152;48.728;9.256;2023-02-14T00:04:43;98904.84;;;-1.18;100.00
12178;BME280;6152;48.728;9.256;2023-02-14T00:07:11;98891.22;;;-1.19;100.00
12178;BME280;6152;48.728;9.256;2023-02-14T00:09:37;98883.53;;;-1.20;100.00
12178;BME280;6152;48.728;9.256;2023-02-14T00:12:04;98892.03;;;-1.21;100.00
12178;BME280;6152;48.728;9.256;2023-02-14T00:14:30;98888.63;;;-1.22;100.00
12178;BME280;6152;48.728;9.256;2023-02-14T00:17:15;98889.53;;;-1.18;100.00
12178;BME280;6152;48.728;9.256;2023-02-14T00:19:41;98886.97;;;-1.18;100.00
12178;BME280;6152;48.728;9.256;2023-02-14T00:22:07;98891.19;;;-1.22;100.00
12178;BME280;6152;48.728;9.256;2023-02-14T00:24:33;98887.72;;;-1.24;100.00
12178;BME280;6152;48.728;9.256;2023-02-14T00:26:59;98885.16;;;-1.25;100.00
12178;BME280;6152;48.728;9.256;2023-02-14T00:29:30;98896.19;;;-1.28;100.00
12178;BME280;6152;48.728;9.256;2023-02-14T00:31:57;98896.22;;;-1.26;100.00
12178;BME280;6152;48.728;9.256;2023-02-14T00:34:23;98899.66;;;-1.24;100.00
12178;BME280;6152;48.728;9.256;2023-02-14T00:36:50;98896.19;;;-1.28;100.00
12178;BME280;6152;48.728;9.256;2023-02-14T00:39:17;98892.75;;;-1.30;100.00
12178;BME280;6152;48.728;9.256;2023-02-14T00:41:44;98890.19;;;-1.31;100.00
12178;BME280;6152;48.728;9.256;2023-02-14T00:44:11;98889.25;;;-1.36;100.00
12178;BME280;6152;48.728;9.256;2023-02-14T00:46:37;98890.94;;;-1.38;100.00
12178;BME280;6152;48.728;9.256;2023-02-14T00:49:04;98886.66;;;-1.39;100.00
12178;BME280;6152;48.728;9.256;2023-02-14T00:51:30;98887.47;;;-1.40;100.00
12178;BME280;6152;48.728;9.256;2023-02-14T00:53:56;98898.56;;;-1.41;100.00
12178;BME280;6152;48.728;9.256;2023-02-14T00:56:22;98896.81;;;-1.42;100.00
12178;BME280;6152;48.728;9.256;2023-02-14T00:58:49;98891.69;;;-1.44;100.00
12178;BME280;6152;48.728;9.256;2023-02-14T01:01:16;98888.22;;;-1.47;100.00
12178;BME280;6152;48.728;9.256;2023-02-14T01:03:42;98887.41;;;-1.46;100.00
12178;BME280;6152;48.728;9.256;2023-02-14T01:06:08;98891.63;;;-1.47;100.00
12178;BME280;6152;48.728;9.256;2023-02-14T01:08:35;98894.19;;;-1.48;100.00
12178;BME280;6152;48.728;9.256;2023-02-14T01:11:13;98898.44;;;-1.49;100.00
12178;BME280;6152;48.728;9.256;2023-02-14T01:13:41;98900.06;;;-1.52;100.00
12178;BME280;6152;48.728;9.256;2023-02-14T01:16:10;98898.34;;;-1.54;100.00
12178;BME280;6152;48.728;9.256;2023-02-14T01:18:38;98897.53;;;-1.52;100.00
12178;BME280;6152;48.728;9.256;2023-02-14T01:23:37;98891.56;;;-1.52;100.00
12178;BME280;6152;48.728;9.256;2023-02-14T01:26:05;98872.66;;;-1.66;100.00
12178;BME280;6152;48.728;9.256;2023-02-14T01:28:32;98884.72;;;-1.56;100.00
12178;BME280;6152;48.728;9.256;2023-02-14T01:31:11;98884.72;;;-1.56;100.00
12178;BME280;6152;48.728;9.256;2023-02-14T01:33:39;98883.81;;;-1.58;100.00
12178;BME280;6152;48.728;9.256;2023-02-14T01:36:10;98887.28;;;-1.56;100.00
12178;BME280;6152;48.728;9.256;2023-02-14T01:38:39;98889.00;;;-1.53;100.00
12178;BME280;6152;48.728;9.256;2023-02-14T01:41:05;98885.53;;;-1.55;100.00
12178;BME280;6152;48.728;9.256;2023-02-14T01:43:47;98884.72;;;-1.56;100.00
12178;BME280;6152;48.728;9.256;2023-02-14T01:46:13;98886.38;;;-1.58;100.00
12178;BME280;6152;48.728;9.256;2023-02-14T01:48:39;98884.63;;;-1.59;100.00
12178;BME280;6152;48.728;9.256;2023-02-14T01:51:06;98886.31;;;-1.61;100.00
12178;BME280;6152;48.728;9.256;2023-02-14T01:53:32;98880.34;;;-1.61;100.00
12178;BME280;6152;48.728;9.256;2023-02-14T01:56:10;98880.34;;;-1.63;100.00
12178;BME280;6152;48.728;9.256;2023-02-14T01:58:40;98876.06;;;-1.64;100.00
12178;BME280;6152;48.728;9.256;2023-02-14T02:01:11;98884.56;;;-1.65;100.00
12178;BME280;6152;48.728;9.256;2023-02-14T02:03:50;98881.13;;;-1.67;100.00
12178;BME280;6152;48.728;9.256;2023-02-14T02:06:51;98888.75;;;-1.70;100.00
12178;BME280;6152;48.728;9.256;2023-02-14T02:09:38;98898.03;;;-1.72;100.00
12178;BME280;6152;48.728;9.256;2023-02-14T02:12:06;98886.97;;;-1.72;100.00
12178;BME280;6152;48.728;9.256;2023-02-14T02:14:32;98888.69;;;-1.71;100.00
12178;BME280;6152;48.728;9.256;2023-02-14T02:17:20;98887.84;;;-1.72;100.00
12178;BME280;6152;48.728;9.256;2023-02-14T02:28:01;98873.38;;;-1.73;100.00
12178;BME280;6152;48.728;9.256;2023-02-14T02:34:11;98871.66;;;-1.72;100.00
12178;BME280;6152;48.728;9.256;2023-02-14T02:36:58;98870.84;;;-1.73;100.00
12178;BME280;6152;48.728;9.256;2023-02-14T02:39:43;98877.69;;;-1.69;100.00
12178;BME280;6152;48.728;9.256;2023-02-14T02:47:39;98878.56;;;-1.67;100.00
12178;BME280;6152;48.728;9.256;2023-02-14T02:53:18;98872.53;;;-1.72;100.00
12178;BME280;6152;48.728;9.256;2023-02-14T02:56:04;98882.69;;;-1.75;100.00
12178;BME280;6152;48.728;9.256;2023-02-14T03:01:35;98866.47;;;-1.78;100.00
12178;BME280;6152;48.728;9.256;2023-02-14T03:04:06;98868.97;;;-1.83;100.00
12178;BME280;6152;48.728;9.256;2023-02-14T03:06:53;98870.66;;;-1.83;100.00
12178;BME280;6152;48.728;9.256;2023-02-14T03:14:43;98872.28;;;-1.87;100.00
12178;BME280;6152;48.728;9.256;2023-02-14T03:28:33;98882.50;;;-1.87;100.00
12178;BME280;6152;48.728;9.256;2023-02-14T03:34:00;98877.41;;;-1.87;100.00
12178;BME280;6152;48.728;9.256;2023-02-14T03:36:41;98879.19;;;-1.83;100.00
12178;BME280;6152;48.728;9.256;2023-02-14T03:39:32;98882.56;;;-1.84;100.00
12178;BME280;6152;48.728;9.256;2023-02-14T03:42:11;98879.13;;;-1.84;100.00
12178;BME280;6152;48.728;9.256;2023-02-14T03:44:40;98869.75;;;-1.85;100.00
12178;BME280;6152;48.728;9.256;2023-02-14T03:47:13;98870.63;;;-1.85;100.00
12178;BME280;6152;48.728;9.256;2023-02-14T03:49:57;98875.72;;;-1.86;100.00
12178;BME280;6152;48.728;9.256;2023-02-14T03:52:26;98873.13;;;-1.88;100.00
12178;BME280;6152;48.728;9.256;2023-02-14T03:54:56;98870.56;;;-1.88;100.00
12178;BME280;6152;48.728;9.256;2023-02-14T03:57:31;98865.50;;;-1.85;100.00
12178;BME280;6152;48.728;9.256;2023-02-14T04:00:00;98872.31;;;-1.85;100.00
12178;BME280;6152;48.728;9.256;2023-02-14T04:02:34;98869.78;;;-1.84;100.00
12178;BME280;6152;48.728;9.256;2023-02-14T04:05:07;98870.66;;;-1.82;100.00
12178;BME280;6152;48.728;9.256;2023-02-14T04:07:45;98867.28;;;-1.81;100.00
12178;BME280;6152;48.728;9.256;2023-02-14T04:10:12;98859.78;;;-1.72;100.00
12178;BME280;6152;48.728;9.256;2023-02-14T04:12:38;98855.59;;;-1.67;100.00
12178;BME280;6152;48.728;9.256;2023-02-14T04:15:05;98857.34;;;-1.66;100.00
12178;BME280;6152;48.728;9.256;2023-02-14T04:17:31;98858.16;;;-1.67;100.00
12178;BME280;6152;48.728;9.256;2023-02-14T04:20:16;98855.56;;;-1.70;100.00
12178;BME280;6152;48.728;9.256;2023-02-14T04:22:42;98858.94;;;-1.71;100.00
12178;BME280;6152;48.728;9.256;2023-02-14T04:25:08;98857.22;;;-1.72;100.00
12178;BME280;6152;48.728;9.256;2023-02-14T04:27:34;98861.50;;;-1.71;100.00
12178;BME280;6152;48.728;9.256;2023-02-14T04:30:00;98856.34;;;-1.74;100.00
12178;BME280;6152;48.728;9.256;2023-02-14T04:32:26;98844.41;;;-1.75;100.00
12178;BME280;6152;48.728;9.256;2023-02-14T04:34:52;98853.78;;;-1.74;100.00
12178;BME280;6152;48.728;9.256;2023-02-14T04:37:19;98849.50;;;-1.75;100.00
12178;BME280;6152;48.728;9.256;2023-02-14T04:39:45;98847.81;;;-1.74;100.00
12178;BME280;6152;48.728;9.256;2023-02-14T04:42:12;98845.19;;;-1.79;100.00
12178;BME280;6152;48.728;9.256;2023-02-14T04:44:38;98849.44;;;-1.81;100.00
12178;BME280;6152;48.728;9.256;2023-02-14T04:47:05;98845.97;;;-1.84;100.00
12178;BME280;6152;48.728;9.256;2023-02-14T04:49:31;98855.31;;;-1.86;100.00
12178;BME280;6152;48.728;9.256;2023-02-14T04:51:58;98865.47;;;-1.88;100.00
12178;BME280;6152;48.728;9.256;2023-02-14T04:54:24;98850.97;;;-1.89;100.00
12178;BME280;6152;48.728;9.256;2023-02-14T04:56:50;98846.78;;;-1.87;100.00
12178;BME280;6152;48.728;9.256;2023-02-14T04:59:16;98850.22;;;-1.85;100.00
12178;BME280;6152;48.728;9.256;2023-02-14T05:01:43;98856.13;;;-1.86;100.00
12178;BME280;6152;48.728;9.256;2023-02-14T05:04:09;98846.78;;;-1.87;100.00
12178;BME280;6152;48.728;9.256;2023-02-14T05:06:35;98854.44;;;-1.87;100.00
12178;BME280;6152;48.728;9.256;2023-02-14T05:09:02;98848.44;;;-1.89;100.00
12178;BME280;6152;48.728;9.256;2023-02-14T05:11:29;98856.94;;;-1.90;100.00
12178;BME280;6152;48.728;9.256;2023-02-14T05:13:56;98856.88;;;-1.93;100.00
12178;BME280;6152;48.728;9.256;2023-02-14T05:16:22;98855.16;;;-1.94;100.00
12178;BME280;6152;48.728;9.256;2023-02-14T05:18:48;98854.31;;;-1.94;100.00
12178;BME280;6152;48.728;9.256;2023-02-14T05:21:14;98854.25;;;-1.97;100.00
12178;BME280;6152;48.728;9.256;2023-02-14T05:23:41;98852.53;;;-1.98;100.00
12178;BME280;6152;48.728;9.256;2023-02-14T05:26:07;98850.81;;;-1.99;100.00
12178;BME280;6152;48.728;9.256;2023-02-14T05:28:33;98851.63;;;-2.02;100.00
12178;BME280;6152;48.728;9.256;2023-02-14T05:31:00;98847.34;;;-2.05;100.00
12178;BME280;6152;48.728;9.256;2023-02-14T05:33:26;98853.31;;;-2.04;100.00
12178;BME280;6152;48.728;9.256;2023-02-14T05:35:52;98847.28;;;-2.06;100.00
12178;BME280;6152;48.728;9.256;2023-02-14T05:38:19;98849.84;;;-2.06;100.00
12178;BME280;6152;48.728;9.256;2023-02-14T05:40:45;98844.75;;;-2.06;100.00
12178;BME280;6152;48.728;9.256;2023-02-14T05:43:11;98854.09;;;-2.07;100.00
12178;BME280;6152;48.728;9.256;2023-02-14T05:45:38;98852.44;;;-2.05;100.00
12178;BME280;6152;48.728;9.256;2023-02-14T05:48:04;98849.84;;;-2.06;100.00
12178;BME280;6152;48.728;9.256;2023-02-14T05:50:31;98857.50;;;-2.08;100.00
12178;BME280;6152;48.728;9.256;2023-02-14T05:52:57;98863.47;;;-2.07;100.00
12178;BME280;6152;48.728;9.256;2023-02-14T05:55:23;98857.44;;;-2.09;100.00
12178;BME280;6152;48.728;9.256;2023-02-14T05:57:51;98859.94;;;-2.12;100.00
12178;BME280;6152;48.728;9.256;2023-02-14T06:00:17;98867.56;;;-2.14;100.00
12178;BME280;6152;48.728;9.256;2023-02-14T06:02:43;98865.00;;;-2.15;100.00
12178;BME280;6152;48.728;9.256;2023-02-14T06:05:10;98865.00;;;-2.15;100.00
12178;BME280;6152;48.728;9.256;2023-02-14T06:07:36;98865.06;;;-2.12;100.00
12178;BME280;6152;48.728;9.256;2023-02-14T06:10:02;98863.38;;;-2.10;100.00
12178;BME280;6152;48.728;9.256;2023-02-14T06:12:28;98864.28;;;-2.08;100.00
12178;BME280;6152;48.728;9.256;2023-02-14T06:14:54;98872.03;;;-2.02;100.00
12178;BME280;6152;48.728;9.256;2023-02-14T06:17:20;98873.69;;;-2.04;100.00
12178;BME280;6152;48.728;9.256;2023-02-14T06:19:46;98868.56;;;-2.07;100.00
12178;BME280;6152;48.728;9.256;2023-02-14T06:22:12;98873.66;;;-2.07;100.00
12178;BME280;6152;48.728;9.256;2023-02-14T06:24:38;98872.75;;;-2.11;100.00
12178;BME280;6152;48.728;9.256;2023-02-14T06:27:05;98867.56;;;-2.14;100.00
12178;BME280;6152;48.728;9.256;2023-02-14T06:29:31;98873.47;;;-2.16;100.00
12178;BME280;6152;48.728;9.256;2023-02-14T06:31:57;98870.06;;;-2.18;100.00
12178;BME280;6152;48.728;9.256;2023-02-14T06:34:30;98871.75;;;-2.17;100.00
12178;BME280;6152;48.728;9.256;2023-02-14T06:36:56;98870.94;;;-2.16;100.00
12178;BME280;6152;48.728;9.256;2023-02-14T06:39:22;98873.50;;;-2.15;100.00
12178;BME280;6152;48.728;9.256;2023-02-14T06:41:48;98875.19;;;-2.15;100.00
12178;BME280;6152;48.728;9.256;2023-02-14T06:44:15;98879.53;;;-2.11;100.00
12178;BME280;6152;48.728;9.256;2023-02-14T06:46:41;98879.56;;;-2.08;100.00
12178;BME280;6152;48.728;9.256;2023-02-14T06:49:08;98892.38;;;-2.05;100.00
12178;BME280;6152;48.728;9.256;2023-02-14T06:51:34;98883.06;;;-2.03;100.00
12178;BME280;6152;48.728;9.256;2023-02-14T06:54:00;98881.41;;;-1.99;100.00
12178;BME280;6152;48.728;9.256;2023-02-14T06:56:27;98878.88;;;-1.99;100.00
12178;BME280;6152;48.728;9.256;2023-02-14T06:58:53;98877.22;;;-1.96;100.00
12178;BME280;6152;48.728;9.256;2023-02-14T07:01:19;98884.88;;;-1.96;100.00
12178;BME280;6152;48.728;9.256;2023-02-14T07:03:45;98877.28;;;-1.93;100.00
12178;BME280;6152;48.728;9.256;2023-02-14T07:06:11;98880.78;;;-1.88;100.00
12178;BME280;6152;48.728;9.256;2023-02-14T07:08:38;98875.72;;;-1.85;100.00
12178;BME280;6152;48.728;9.256;2023-02-14T07:11:04;98877.50;;;-1.81;100.00
12178;BME280;6152;48.728;9.256;2023-02-14T07:13:30;98870.72;;;-1.79;100.00
12178;BME280;6152;48.728;9.256;2023-02-14T07:15:56;98875.06;;;-1.73;100.00
12178;BME280;6152;48.728;9.256;2023-02-14T07:18:22;98870.06;;;-1.67;100.00
12178;BME280;6152;48.728;9.256;2023-02-14T07:20:49;98867.63;;;-1.60;100.00
12178;BME280;6152;48.728;9.256;2023-02-14T07:23:15;98865.16;;;-1.54;100.00
12178;BME280;6152;48.728;9.256;2023-02-14T07:25:42;98872.09;;;-1.46;100.00
12178;BME280;6152;48.728;9.256;2023-02-14T07:28:08;98874.75;;;-1.37;100.00
12178;BME280;6152;48.728;9.256;2023-02-14T07:30:34;98879.16;;;-1.29;100.00
12178;BME280;6152;48.728;9.256;2023-02-14T07:33:00;98886.03;;;-1.23;100.00
12178;BME280;6152;48.728;9.256;2023-02-14T07:35:26;98876.75;;;-1.18;100.00
12178;BME280;6152;48.728;9.256;2023-02-14T07:37:53;98872.63;;;-1.09;100.00
12178;BME280;6152;48.728;9.256;2023-02-14T07:40:19;98865.06;;;-1.01;100.00
12178;BME280;6152;48.728;9.256;2023-02-14T07:42:52;98864.31;;;-0.94;100.00
12178;BME280;6152;48.728;9.256;2023-02-14T07:45:19;98868.66;;;-0.87;100.00
12178;BME280;6152;48.728;9.256;2023-02-14T07:47:48;98872.19;;;-0.76;100.00
12178;BME280;6152;48.728;9.256;2023-02-14T07:50:20;98868.00;;;-0.71;100.00
12178;BME280;6152;48.728;9.256;2023-02-14T07:52:47;98866.38;;;-0.64;100.00
12178;BME280;6152;48.728;9.256;2023-02-14T07:55:13;98867.28;;;-0.61;100.00
12178;BME280;6152;48.728;9.256;2023-02-14T07:57:40;98863.91;;;-0.55;100.00
12178;BME280;6152;48.728;9.256;2023-02-14T08:00:07;98870.84;;;-0.46;100.00
12178;BME280;6152;48.728;9.256;2023-02-14T08:02:34;98867.47;;;-0.42;100.00
12178;BME280;6152;48.728;9.256;2023-02-14T08:05:00;98869.28;;;-0.35;100.00
12178;BME280;6152;48.728;9.256;2023-02-14T08:07:26;98865.09;;;-0.26;100.00
12178;BME280;6152;48.728;9.256;2023-02-14T08:09:52;98868.50;;;-0.27;100.00
12178;BME280;6152;48.728;9.256;2023-02-14T08:12:18;98856.59;;;-0.25;100.00
12178;BME280;6152;48.728;9.256;2023-02-14T08:15:04;98852.44;;;-0.12;100.00
12178;BME280;6152;48.728;9.256;2023-02-14T08:17:50;98864.44;;;-0.05;100.00
12178;BME280;6152;48.728;9.256;2023-02-14T08:20:16;98860.25;;;0.00;100.00
12178;BME280;6152;48.728;9.256;2023-02-14T08:22:42;98862.09;;;0.16;100.00
12178;BME280;6152;48.728;9.256;2023-02-14T08:25:08;98852.78;;;0.29;100.00
12178;BME280;6152;48.728;9.256;2023-02-14T08:27:34;98858.03;;;0.45;100.00
12178;BME280;6152;48.728;9.256;2023-02-14T08:30:00;98871.78;;;0.57;100.00
12178;BME280;6152;48.728;9.256;2023-02-14T08:32:27;98854.81;;;0.71;100.00
12178;BME280;6152;48.728;9.256;2023-02-14T08:34:53;98869.41;;;0.84;100.00
12178;BME280;6152;48.728;9.256;2023-02-14T08:37:19;98864.25;;;0.81;100.00
12178;BME280;6152;48.728;9.256;2023-02-14T08:39:45;98866.84;;;0.84;100.00
12178;BME280;6152;48.728;9.256;2023-02-14T08:42:11;98862.69;;;1.06;100.00
12178;BME280;6152;48.728;9.256;2023-02-14T08:44:37;98865.34;;;1.22;100.00
12178;BME280;6152;48.728;9.256;2023-02-14T08:47:03;98859.44;;;1.40;100.00
12178;BME280;6152;48.728;9.256;2023-02-14T08:49:30;98863.72;;;1.45;100.00
12178;BME280;6152;48.728;9.256;2023-02-14T08:51:56;98873.09;;;1.39;100.00
12178;BME280;6152;48.728;9.256;2023-02-14T08:54:22;98862.03;;;1.47;100.00
12178;BME280;6152;48.728;9.256;2023-02-14T08:56:48;98855.22;;;1.69;100.00
12178;BME280;6152;48.728;9.256;2023-02-14T08:59:14;98859.53;;;1.81;100.00
12178;BME280;6152;48.728;9.256;2023-02-14T09:01:40;98868.97;;;2.00;100.00
12178;BME280;6152;48.728;9.256;2023-02-14T09:04:06;98860.47;;;2.25;100.00
12178;BME280;6152;48.728;9.256;2023-02-14T09:06:32;98858.75;;;2.47;100.00
12178;BME280;6152;48.728;9.256;2023-02-14T09:09:01;98859.59;;;2.69;100.00
12178;BME280;6152;48.728;9.256;2023-02-14T09:11:27;98860.41;;;2.80;100.00
12178;BME280;6152;48.728;9.256;2023-02-14T09:13:53;98855.22;;;3.10;100.00
12178;BME280;6152;48.728;9.256;2023-02-14T09:16:21;98850.84;;;3.29;100.00
12178;BME280;6152;48.728;9.256;2023-02-14T09:18:48;98856.72;;;3.60;100.00
12178;BME280;6152;48.728;9.256;2023-02-14T09:21:17;98854.22;;;3.46;100.00
12178;BME280;6152;48.728;9.256;2023-02-14T09:23:43;98850.72;;;3.59;100.00
12178;BME280;6152;48.728;9.256;2023-02-14T09:26:11;98841.03;;;3.97;100.00
12178;BME280;6152;48.728;9.256;2023-02-14T09:28:38;98835.91;;;3.94;100.00
12178;BME280;6152;48.728;9.256;2023-02-14T09:31:18;98828.00;;;4.19;100.00
12178;BME280;6152;48.728;9.256;2023-02-14T09:33:46;98833.78;;;4.48;100.00
12178;BME280;6152;48.728;9.256;2023-02-14T09:36:12;98831.69;;;4.88;100.00
12178;BME280;6152;48.728;9.256;2023-02-14T09:38:39;98835.75;;;5.07;100.00
12178;BME280;6152;48.728;9.256;2023-02-14T09:41:06;98837.88;;;5.46;100.00
12178;BME280;6152;48.728;9.256;2023-02-14T09:46:02;98837.88;;;5.48;100.00
12178;BME280;6152;48.728;9.256;2023-02-14T09:48:37;98829.44;;;5.32;100.00
12178;BME280;6152;48.728;9.256;2023-02-14T09:51:16;98825.72;;;6.68;100.00
12178;BME280;6152;48.728;9.256;2023-02-14T09:53:46;98821.22;;;8.74;100.00
12178;BME280;6152;48.728;9.256;2023-02-14T09:56:31;98809.56;;;12.47;75.63
12178;BME280;6152;48.728;9.256;2023-02-14T10:01:51;98799.94;;;16.53;45.74
12178;BME280;6152;48.728;9.256;2023-02-14T10:04:39;98790.81;;;17.89;42.14
12178;BME280;6152;48.728;9.256;2023-02-14T10:07:39;98793.31;;;15.85;41.56
12178;BME280;6152;48.728;9.256;2023-02-14T10:13:30;98779.44;;;19.95;37.51
12178;BME280;6152;48.728;9.256;2023-02-14T10:18:39;98780.75;;;21.75;33.10
12178;BME280;6152;48.728;9.256;2023-02-14T10:21:07;98758.16;;;22.45;30.04
12178;BME280;6152;48.728;9.256;2023-02-14T10:23:40;98762.59;;;22.88;30.56
12178;BME280;6152;48.728;9.256;2023-02-14T10:26:14;98754.56;;;22.46;28.08
12178;BME280;6152;48.728;9.256;2023-02-14T10:28:48;98742.38;;;23.78;27.91
12178;BME280;6152;48.728;9.256;2023-02-14T10:31:22;98747.34;;;23.61;28.36
12178;BME280;6152;48.728;9.256;2023-02-14T10:33:54;98742.50;;;24.35;27.63
12178;BME280;6152;48.728;9.256;2023-02-14T10:36:35;98738.16;;;24.92;26.01
12178;BME280;6152;48.728;9.256;2023-02-14T10:42:10;98727.78;;;23.72;26.97
12178;BME280;6152;48.728;9.256;2023-02-14T10:44:54;98728.81;;;22.26;28.87
12178;BME280;6152;48.728;9.256;2023-02-14T10:55:43;98715.78;;;23.78;26.26
12178;BME280;6152;48.728;9.256;2023-02-14T10:58:17;98718.34;;;24.08;26.71
12178;BME280;6152;48.728;9.256;2023-02-14T11:00:58;98713.34;;;25.28;25.13
12178;BME280;6152;48.728;9.256;2023-02-14T11:03:27;98702.25;;;25.70;23.79
12178;BME280;6152;48.728;9.256;2023-02-14T11:05:54;98701.03;;;26.09;23.78
12178;BME280;6152;48.728;9.256;2023-02-14T11:08:27;98694.91;;;27.13;24.05
12178;BME280;6152;48.728;9.256;2023-02-14T11:10:57;98686.94;;;28.05;22.48
12178;BME280;6152;48.728;9.256;2023-02-14T11:13:28;98686.69;;;28.32;22.70
12178;BME280;6152;48.728;9.256;2023-02-14T11:15:59;98688.53;;;28.88;21.56
12178;BME280;6152;48.728;9.256;2023-02-14T11:18:27;98675.84;;;26.11;24.14
12178;BME280;6152;48.728;9.256;2023-02-14T11:21:10;98683.31;;;26.08;23.15
12178;BME280;6152;48.728;9.256;2023-02-14T11:23:42;98676.53;;;26.67;22.52
12178;BME280;6152;48.728;9.256;2023-02-14T11:26:24;98666.44;;;27.04;22.70
12178;BME280;6152;48.728;9.256;2023-02-14T11:28:57;98666.91;;;28.17;22.39
12178;BME280;6152;48.728;9.256;2023-02-14T11:31:27;98667.47;;;27.79;21.89
12178;BME280;6152;48.728;9.256;2023-02-14T11:33:54;98666.16;;;27.91;21.71
12178;BME280;6152;48.728;9.256;2023-02-14T11:36:21;98668.06;;;28.55;21.18
12178;BME280;6152;48.728;9.256;2023-02-14T11:38:55;98663.22;;;28.18;20.68
12178;BME280;6152;48.728;9.256;2023-02-14T11:41:23;98660.03;;;27.23;22.04
12178;BME280;6152;48.728;9.256;2023-02-14T11:43:49;98643.00;;;27.57;21.96
12178;BME280;6152;48.728;9.256;2023-02-14T11:49:10;98652.19;;;28.37;21.11
12178;BME280;6152;48.728;9.256;2023-02-14T11:51:48;98644.13;;;27.13;22.52
12178;BME280;6152;48.728;9.256;2023-02-14T11:54:29;98634.13;;;27.23;21.74
12178;BME280;6152;48.728;9.256;2023-02-14T11:57:02;98630.03;;;27.95;21.90
12178;BME280;6152;48.728;9.256;2023-02-14T11:59:36;98628.38;;;28.83;21.14
12178;BME280;6152;48.728;9.256;2023-02-14T12:04:44;98625.56;;;29.31;20.92
12178;BME280;6152;48.728;9.256;2023-02-14T12:07:16;98617.34;;;28.70;20.74
12178;BME280;6152;48.728;9.256;2023-02-14T12:09:44;98618.56;;;29.30;20.71
12178;BME280;6152;48.728;9.256;2023-02-14T12:12:21;98617.44;;;30.09;20.03
12178;BME280;6152;48.728;9.256;2023-02-14T12:14:48;98613.53;;;29.19;20.50
12178;BME280;6152;48.728;9.256;2023-02-14T12:17:30;98605.03;;;30.08;20.35
12178;BME280;6152;48.728;9.256;2023-02-14T12:22:38;98598.13;;;31.03;19.24
12178;BME280;6152;48.728;9.256;2023-02-14T12:25:15;98591.53;;;31.71;18.77
12178;BME280;6152;48.728;9.256;2023-02-14T12:27:55;98602.00;;;32.16;18.33
12178;BME280;6152;48.728;9.256;2023-02-14T12:30:24;98592.97;;;31.88;18.43
12178;BME280;6152;48.728;9.256;2023-02-14T12:32:54;98591.25;;;32.01;18.55
12178;BME280;6152;48.728;9.256;2023-02-14T12:35:59;98585.19;;;31.42;18.22
12178;BME280;6152;48.728;9.256;2023-02-14T12:41:31;98576.91;;;31.59;18.04
12178;BME280;6152;48.728;9.256;2023-02-14T12:47:25;98573.00;;;32.03;17.63
12178;BME280;6152;48.728;9.256;2023-02-14T12:50:08;98567.13;;;32.15;17.97
12178;BME280;6152;48.728;9.256;2023-02-14T12:53:00;98556.03;;;31.82;17.73
12178;BME280;6152;48.728;9.256;2023-02-14T13:03:49;98551.44;;;30.67;18.86
12178;BME280;6152;48.728;9.256;2023-02-14T13:23:01;98535.59;;;20.15;28.83
12178;BME280;6152;48.728;9.256;2023-02-14T13:25:31;98531.97;;;18.99;30.14
12178;BME280;6152;48.728;9.256;2023-02-14T13:28:05;98521.41;;;18.12;31.88
12178;BME280;6152;48.728;9.256;2023-02-14T13:30:34;98528.81;;;17.14;33.12
12178;BME280;6152;48.728;9.256;2023-02-14T13:35:48;98528.47;;;15.93;35.27
12178;BME280;6152;48.728;9.256;2023-02-14T13:38:17;98529.53;;;15.45;35.43
12178;BME280;6152;48.728;9.256;2023-02-14T13:40:44;98534.78;;;15.60;35.59
12178;BME280;6152;48.728;9.256;2023-02-14T13:43:11;98531.94;;;15.93;35.03
12178;BME280;6152;48.728;9.256;2023-02-14T13:45:49;98534.44;;;15.66;35.68
12178;BME280;6152;48.728;9.256;2023-02-14T13:50:58;98528.41;;;14.41;38.22
12178;BME280;6152;48.728;9.256;2023-02-14T13:53:33;98526.97;;;14.01;39.14
12178;BME280;6152;48.728;9.256;2023-02-14T13:56:42;98529.28;;;13.38;41.32
12178;BME280;6152;48.728;9.256;2023-02-14T13:59:00;98528.88;;;12.93;43.02
12178;BME280;6152;48.728;9.256;2023-02-14T14:01:42;98525.56;;;12.71;44.62
12178;BME280;6152;48.728;9.256;2023-02-14T14:25:39;98518.38;;;10.95;63.57
12178;BME280;6152;48.728;9.256;2023-02-14T14:28:10;98526.88;;;10.79;64.99
12178;BME280;6152;48.728;9.256;2023-02-14T14:30:37;98518.25;;;10.77;68.68
12178;BME280;6152;48.728;9.256;2023-02-14T14:33:28;98517.16;;;10.60;69.66
12178;BME280;6152;48.728;9.256;2023-02-14T14:36:04;98514.94;;;10.50;70.89
12178;BME280;6152;48.728;9.256;2023-02-14T14:38:33;98520.28;;;10.47;72.63
12178;BME280;6152;48.728;9.256;2023-02-14T14:41:00;98518.41;;;10.27;74.02
12178;BME280;6152;48.728;9.256;2023-02-14T14:43:29;98522.16;;;10.20;76.01
12178;BME280;6152;48.728;9.256;2023-02-14T14:45:59;98517.81;;;9.96;78.39
12178;BME280;6152;48.728;9.256;2023-02-14T14:48:34;98516.09;;;9.95;79.80
12178;BME280;6152;48.728;9.256;2023-02-14T14:51:03;98518.44;;;10.02;79.76
12178;BME280;6152;48.728;9.256;2023-02-14T14:53:57;98513.66;;;10.15;79.34
12178;BME280;6152;48.728;9.256;2023-02-14T14:56:25;98513.84;;;10.09;80.73
12178;BME280;6152;48.728;9.256;2023-02-14T14:58:53;98513.78;;;10.10;80.38
12178;BME280;6152;48.728;9.256;2023-02-14T15:01:35;98515.94;;;9.99;81.38
12178;BME280;6152;48.728;9.256;2023-02-14T15:04:32;98512.13;;;9.85;83.34
12178;BME280;6152;48.728;9.256;2023-02-14T15:07:24;98520.66;;;9.88;83.58
12178;BME280;6152;48.728;9.256;2023-02-14T15:09:55;98518.09;;;9.87;83.65
12178;BME280;6152;48.728;9.256;2023-02-14T15:12:23;98517.81;;;9.71;85.22
12178;BME280;6152;48.728;9.256;2023-02-14T15:15:14;98511.91;;;9.66;87.16
12178;BME280;6152;48.728;9.256;2023-02-14T15:17:42;98520.03;;;9.57;86.82
12178;BME280;6152;48.728;9.256;2023-02-14T15:22:45;98523.72;;;9.50;88.97
12178;BME280;6152;48.728;9.256;2023-02-14T15:25:26;98517.69;;;9.49;89.70
12178;BME280;6152;48.728;9.256;2023-02-14T15:27:54;98523.88;;;9.45;89.36
12178;BME280;6152;48.728;9.256;2023-02-14T15:32:54;98520.47;;;9.17;93.08
12178;BME280;6152;48.728;9.256;2023-02-14T15:35:26;98528.53;;;9.09;94.90
12178;BME280;6152;48.728;9.256;2023-02-14T15:37:56;98526.09;;;9.05;95.13
12178;BME280;6152;48.728;9.256;2023-02-14T15:40:25;98520.00;;;9.06;96.62
12178;BME280;6152;48.728;9.256;2023-02-14T15:42:53;98512.59;;;8.94;97.66